createdAt,value
2019-04-05T00:03:04.299Z,99193.50
2019-04-05T00:05:54.680Z,99189.66
2019-04-05T00:08:38.139Z,99187.41
2019-04-05T00:11:28.523Z,99187.36
2019-04-05T00:14:11.523Z,99188.34
2019-04-05T00:17:01.896Z,99188.80
2019-04-05T00:19:45.436Z,99186.27
2019-04-05T00:22:28.136Z,99175.27
2019-04-05T00:25:18.551Z,99181.88
2019-04-05T00:28:01.500Z,99184.78
2019-04-05T00:30:51.918Z,99183.48
2019-04-05T00:33:34.849Z,99180.09
2019-04-05T00:36:26.120Z,99192.64
2019-04-05T00:39:16.459Z,99188.72
2019-04-05T00:42:06.826Z,99180.95
2019-04-05T00:44:49.528Z,99189.78
2019-04-05T00:47:39.908Z,99177.10
2019-04-05T00:50:23.337Z,99178.63
2019-04-05T00:53:13.733Z,99186.02
2019-04-05T00:55:56.391Z,99189.30
2019-04-05T00:58:46.767Z,99195.64
2019-04-05T01:01:29.481Z,99190.36
2019-04-05T01:04:12.345Z,99183.58
2019-04-05T01:07:02.776Z,99183.17
2019-04-05T01:09:46.246Z,99183.63
2019-04-05T01:16:04.967Z,99164.54
2019-04-05T01:18:55.371Z,99167.80
2019-04-05T01:21:42.478Z,99177.41
2019-04-05T01:24:32.871Z,99186.15
2019-04-05T01:27:15.447Z,99183.29
2019-04-05T01:33:54.043Z,99192.33
2019-04-05T01:36:44.411Z,99197.64
2019-04-05T01:39:34.805Z,99200.84
2019-04-05T01:45:54.561Z,99211.34
2019-04-05T01:48:44.884Z,99215.22
2019-04-05T01:51:27.815Z,99226.14
2019-04-05T01:54:18.164Z,99221.77
2019-04-05T01:57:00.799Z,99219.84
2019-04-05T01:59:51.158Z,99218.13
2019-04-05T02:02:34.622Z,99229.56
2019-04-05T02:05:25.105Z,99229.89
2019-04-05T02:08:07.745Z,99236.89
2019-04-05T02:14:26.225Z,99243.62
2019-04-05T02:17:16.591Z,99238.77
2019-04-05T02:20:27.535Z,99231.66
2019-04-05T02:23:11.035Z,99221.72
2019-04-05T02:26:01.411Z,99217.47
2019-04-05T02:28:44.222Z,99211.38
2019-04-05T02:31:34.605Z,99215.27
2019-04-05T02:34:17.775Z,99210.41
2019-04-05T02:37:08.147Z,99211.26
2019-04-05T02:39:51.729Z,99218.58
2019-04-05T02:43:02.605Z,99220.29
2019-04-05T02:45:47.174Z,99216.73
2019-04-05T02:48:58.120Z,99208.97
2019-04-05T02:51:41.713Z,99204.34
2019-04-05T02:54:25.115Z,99197.66
2019-04-05T03:00:44.591Z,99195.81
2019-04-05T03:03:27.638Z,99194.05
2019-04-05T03:06:18.228Z,99196.55
2019-04-05T03:09:01.367Z,99212.03
2019-04-05T03:11:52.260Z,99210.89
2019-04-05T03:14:35.465Z,99208.72
2019-04-05T03:20:55.897Z,99205.70
2019-04-05T03:24:06.715Z,99211.79
2019-04-05T03:26:52.162Z,99210.56
2019-04-05T03:30:22.233Z,99209.63
2019-04-05T03:33:05.417Z,99215.30
2019-04-05T03:35:55.905Z,99214.08
2019-04-05T03:38:39.231Z,99217.14
2019-04-05T03:41:29.786Z,99222.33
2019-04-05T03:44:12.524Z,99231.33
2019-04-05T03:47:03.136Z,99237.30
2019-04-05T03:49:45.889Z,99234.67
2019-04-05T03:52:36.313Z,99233.04
2019-04-05T03:55:19.142Z,99242.89
2019-04-05T04:01:38.464Z,99242.39
2019-04-05T04:04:28.990Z,99224.70
2019-04-05T04:07:12.253Z,99232.14
2019-04-05T04:10:02.792Z,99230.91
2019-04-05T04:12:45.893Z,99228.66
2019-04-05T04:15:29.402Z,99225.67
2019-04-05T04:18:19.774Z,99226.50
2019-04-05T04:21:03.798Z,99227.77
2019-04-05T04:27:22.612Z,99235.98
2019-04-05T04:30:13.185Z,99237.24
2019-04-05T04:32:56.362Z,99234.62
2019-04-05T04:35:47.054Z,99238.55
2019-04-05T04:38:30.308Z,99240.31
2019-04-05T04:41:20.789Z,99242.47
2019-04-05T04:44:03.961Z,99247.17
2019-04-05T04:46:54.303Z,99256.45
2019-04-05T04:49:37.736Z,99268.27
2019-04-05T04:56:15.607Z,99269.25
2019-04-05T04:59:05.972Z,99279.46
2019-04-05T05:01:49.306Z,99266.13
2019-04-05T05:08:08.921Z,99277.25
2019-04-05T05:10:59.404Z,99277.63
2019-04-05T05:13:49.743Z,99278.48
2019-04-05T05:16:32.754Z,99284.83
2019-04-05T05:19:23.337Z,99289.65
2019-04-05T05:22:06.580Z,99294.31
2019-04-05T05:28:25.519Z,99298.03
2019-04-05T05:31:15.886Z,99300.57
2019-04-05T05:37:35.447Z,99302.81
2019-04-05T05:40:34.878Z,99297.05
2019-04-05T05:43:30.442Z,99291.74
2019-04-05T05:46:20.820Z,99292.52
2019-04-05T05:49:03.433Z,99293.75
2019-04-05T05:55:22.335Z,99293.51
2019-04-05T05:58:12.727Z,99297.23
2019-04-05T06:00:55.864Z,99301.61
2019-04-05T06:03:46.200Z,99301.08
2019-04-05T06:06:29.427Z,99296.70
2019-04-05T06:09:19.762Z,99298.54
2019-04-05T06:12:02.809Z,99306.97
2019-04-05T06:14:53.194Z,99305.83
2019-04-05T06:17:35.730Z,99306.15
2019-04-05T06:20:26.052Z,99303.08
2019-04-05T06:23:09.217Z,99298.50
2019-04-05T06:25:59.558Z,99300.83
2019-04-05T06:28:42.884Z,99301.08
2019-04-05T06:31:33.347Z,99307.66
2019-04-05T06:34:16.056Z,99306.91
2019-04-05T06:37:06.414Z,99309.00
2019-04-05T06:39:49.366Z,99313.57
2019-04-05T06:42:39.742Z,99309.88
2019-04-05T06:45:23.084Z,99308.81
2019-04-05T06:48:19.345Z,99305.77
2019-04-05T06:51:18.380Z,99309.33
2019-04-05T06:54:09.148Z,99305.79
2019-04-05T06:56:52.298Z,99308.17
2019-04-05T06:59:42.627Z,99304.02
2019-04-05T07:02:25.826Z,99308.91
2019-04-05T07:05:16.201Z,99314.16
2019-04-05T07:07:59.604Z,99313.53
2019-04-05T07:10:49.948Z,99318.96
2019-04-05T07:13:32.535Z,99315.64
2019-04-05T07:16:15.204Z,99316.95
2019-04-05T07:19:05.592Z,99326.95
2019-04-05T07:21:48.180Z,99318.23
2019-04-05T07:24:38.557Z,99312.63
2019-04-05T07:27:28.892Z,99314.80
2019-04-05T07:30:12.029Z,99310.37
2019-04-05T07:33:02.342Z,99310.53
2019-04-05T07:35:44.898Z,99323.42
2019-04-05T07:38:35.190Z,99321.42
2019-04-05T07:41:18.657Z,99315.44
2019-04-05T07:44:09.043Z,99322.67
2019-04-05T07:46:59.401Z,99313.64
2019-04-05T07:49:42.624Z,99317.80
2019-04-05T07:52:32.981Z,99326.98
2019-04-05T07:55:16.491Z,99318.16
2019-04-05T07:58:06.924Z,99320.53
2019-04-05T08:00:51.055Z,99327.53
2019-04-05T08:03:41.460Z,99331.08
2019-04-05T08:06:24.214Z,99327.66
2019-04-05T08:12:43.734Z,99334.06
2019-04-05T08:15:34.088Z,99339.67
2019-04-05T08:18:17.603Z,99336.09
2019-04-05T08:21:08.006Z,99339.13
2019-04-05T08:23:51.259Z,99344.98
2019-04-05T08:26:41.624Z,99345.14
2019-04-05T08:29:24.795Z,99342.81
2019-04-05T08:32:14.324Z,99341.86
2019-04-05T08:35:00.202Z,99343.37
2019-04-05T08:37:43.522Z,99341.84
2019-04-05T08:40:33.892Z,99351.30
2019-04-05T08:43:24.266Z,99349.38
2019-04-05T08:46:14.694Z,99357.31
2019-04-05T08:49:09.722Z,99353.23
2019-04-05T08:51:49.442Z,99353.84
2019-04-05T08:54:36.330Z,99358.69
2019-04-05T08:57:24.453Z,99361.06
2019-04-05T09:00:07.463Z,99359.75
2019-04-05T09:02:58.411Z,99355.80
2019-04-05T09:05:41.343Z,99358.75
2019-04-05T09:08:31.687Z,99358.20
2019-04-05T09:11:22.056Z,99353.09
2019-04-05T09:14:12.436Z,99349.45
2019-04-05T09:16:55.896Z,99355.10
2019-04-05T09:19:46.268Z,99350.97
2019-04-05T09:22:29.241Z,99355.97
2019-04-05T09:25:19.920Z,99350.34
2019-04-05T09:28:24.025Z,99350.21
2019-04-05T09:31:14.383Z,99354.58
2019-04-05T09:33:57.125Z,99357.02
2019-04-05T09:36:47.531Z,99360.04
2019-04-05T09:39:30.845Z,99350.41
2019-04-05T09:42:21.211Z,99339.45
2019-04-05T09:45:05.040Z,99348.33
2019-04-05T09:47:55.459Z,99350.05
2019-04-05T09:50:38.061Z,99353.63
2019-04-05T09:53:28.463Z,99343.14
2019-04-05T09:56:11.960Z,99347.85
2019-04-05T09:59:02.375Z,99344.11
2019-04-05T10:01:45.075Z,99353.42
2019-04-05T10:04:35.438Z,99348.64
2019-04-05T10:07:18.712Z,99349.84
2019-04-05T10:10:29.563Z,99342.58
2019-04-05T10:13:12.440Z,99340.68
2019-04-05T10:16:02.820Z,99343.58
2019-04-05T10:18:46.184Z,99332.09
2019-04-05T10:21:36.512Z,99339.34
2019-04-05T10:24:26.872Z,99334.50
2019-04-05T10:27:09.681Z,99332.76
2019-04-05T10:30:19.057Z,99331.83
2019-04-05T10:33:02.329Z,99327.77
2019-04-05T10:35:52.704Z,99334.95
2019-04-05T10:38:35.746Z,99338.84
2019-04-05T10:41:26.133Z,99336.14
2019-04-05T10:44:11.500Z,99337.00
2019-04-05T10:46:54.738Z,99340.17
2019-04-05T10:49:45.096Z,99343.35
2019-04-05T10:52:28.103Z,99341.02
2019-04-05T10:55:18.460Z,99345.70
2019-04-05T10:58:01.050Z,99331.59
2019-04-05T11:00:51.431Z,99333.73
2019-04-05T11:03:34.062Z,99331.11
2019-04-05T11:06:24.445Z,99330.53
2019-04-05T11:09:07.966Z,99329.24
2019-04-05T11:11:58.346Z,99328.59
2019-04-05T11:14:41.065Z,99328.61
2019-04-05T11:17:31.534Z,99333.14
2019-04-05T11:20:21.392Z,99332.08
2019-04-05T11:23:06.298Z,99334.36
2019-04-05T11:25:49.469Z,99336.61
2019-04-05T11:28:39.831Z,99340.92
2019-04-05T11:31:23.122Z,99342.16
2019-04-05T11:34:13.563Z,99343.19
2019-04-05T11:37:04.050Z,99343.19
2019-04-05T11:39:54.708Z,99341.33
2019-04-05T11:42:38.476Z,99340.36
2019-04-05T11:48:21.820Z,99334.36
2019-04-05T11:51:04.779Z,99340.36
2019-04-05T11:53:55.145Z,99338.46
2019-04-05T11:56:38.012Z,99343.09
2019-04-05T11:59:28.419Z,99336.98
2019-04-05T12:02:30.024Z,99341.20
2019-04-05T12:05:14.679Z,99341.77
2019-04-05T12:08:05.023Z,99345.81
2019-04-05T12:10:47.667Z,99339.90
2019-04-05T12:13:38.029Z,99336.00
2019-04-05T12:16:20.806Z,99340.26
2019-04-05T12:19:11.170Z,99331.04
2019-04-05T12:21:53.913Z,99326.78
2019-04-05T12:24:44.294Z,99329.14
2019-04-05T12:27:26.830Z,99326.59
2019-04-05T12:33:28.541Z,99317.36
2019-04-05T12:36:22.014Z,99314.83
2019-04-05T12:39:23.603Z,99302.24
2019-04-05T12:42:14.018Z,99304.88
2019-04-05T12:44:57.329Z,99303.48
2019-04-05T12:47:47.732Z,99296.61
2019-04-05T12:51:00.621Z,99286.37
2019-04-05T12:56:54.344Z,99289.19
2019-04-05T12:59:58.242Z,99286.45
2019-04-05T13:02:50.471Z,99287.22
2019-04-05T13:05:56.819Z,99288.12
2019-04-05T13:08:45.880Z,99287.77
2019-04-05T13:11:28.936Z,99286.73
2019-04-05T13:14:19.358Z,99290.38
2019-04-05T13:17:02.843Z,99291.12
2019-04-05T13:19:45.943Z,99291.78
2019-04-05T13:22:36.325Z,99286.03
2019-04-05T13:25:18.991Z,99288.02
2019-04-05T13:28:13.456Z,99281.50
2019-04-05T13:31:13.526Z,99283.30
2019-04-05T13:34:05.866Z,99287.50
2019-04-05T13:37:19.658Z,99283.33
2019-04-05T13:40:00.612Z,99278.78
2019-04-05T13:43:04.628Z,99277.93
2019-04-05T13:45:55.000Z,99270.56
2019-04-05T13:48:40.140Z,99264.98
2019-04-05T13:51:31.907Z,99261.80
2019-04-05T13:54:35.014Z,99265.09
2019-04-05T13:57:18.257Z,99263.72
2019-04-05T14:03:45.158Z,99262.48
2019-04-05T14:06:28.239Z,99253.44
2019-04-05T14:09:18.570Z,99253.63
2019-04-05T14:12:01.166Z,99254.89
2019-04-05T14:14:51.853Z,99247.20
2019-04-05T14:17:56.364Z,99250.38
2019-04-05T14:20:49.638Z,99246.00
2019-04-05T14:23:53.294Z,99241.50
2019-04-05T14:26:43.803Z,99241.50
2019-04-05T14:29:48.509Z,99243.38
2019-04-05T14:32:38.889Z,99234.11
2019-04-05T14:35:24.515Z,99237.40
2019-04-05T14:38:13.941Z,99232.11
2019-04-05T14:40:56.562Z,99235.33
2019-04-05T14:43:46.932Z,99233.31
2019-04-05T14:46:29.526Z,99232.50
2019-04-05T14:49:19.905Z,99241.18
2019-04-05T14:52:03.339Z,99235.62
2019-04-05T14:54:53.734Z,99234.64
2019-04-05T14:57:36.794Z,99233.71
2019-04-05T15:00:27.149Z,99229.88
2019-04-05T15:03:10.226Z,99223.49
2019-04-05T15:06:00.575Z,99220.89
2019-04-05T15:08:43.979Z,99226.31
2019-04-05T15:11:34.342Z,99220.59
2019-04-05T15:14:17.633Z,99226.77
2019-04-05T15:17:07.965Z,99222.59
2019-04-05T15:19:51.445Z,99217.06
2019-04-05T15:22:34.115Z,99213.03
2019-04-05T15:25:24.427Z,99209.44
2019-04-05T15:28:07.545Z,99209.95
2019-04-05T15:30:57.922Z,99203.23
2019-04-05T15:34:00.957Z,99201.06
2019-04-05T15:36:51.340Z,99192.16
2019-04-05T15:39:34.950Z,99195.95
2019-04-05T15:42:25.306Z,99194.03
2019-04-05T15:45:08.653Z,99197.38
2019-04-05T15:47:59.020Z,99195.34
2019-04-05T15:50:41.815Z,99204.70
2019-04-05T15:53:32.683Z,99200.66
2019-04-05T15:56:37.276Z,99199.34
2019-04-05T15:59:27.655Z,99203.38
2019-04-05T16:02:11.082Z,99206.42
2019-04-05T16:05:01.460Z,99212.28
2019-04-05T16:07:43.969Z,99214.44
2019-04-05T16:10:34.348Z,99210.16
2019-04-05T16:13:17.648Z,99206.81
2019-04-05T16:16:07.990Z,99219.00
2019-04-05T16:18:51.100Z,99216.77
2019-04-05T16:21:41.526Z,99219.59
2019-04-05T16:24:24.802Z,99220.86
2019-04-05T16:27:15.208Z,99215.24
2019-04-05T16:29:57.883Z,99217.78
2019-04-05T16:32:48.258Z,99214.69
2019-04-05T16:35:31.751Z,99218.67
2019-04-05T16:38:22.170Z,99227.16
2019-04-05T16:41:05.160Z,99227.58
2019-04-05T16:43:58.070Z,99229.23
2019-04-05T16:46:41.002Z,99230.98
2019-04-05T16:49:31.343Z,99232.66
2019-04-05T16:52:13.930Z,99233.88
2019-04-05T16:58:33.074Z,99230.49
2019-04-05T17:01:27.428Z,99226.73
2019-04-05T17:04:35.485Z,99224.73
2019-04-05T17:07:18.742Z,99223.59
2019-04-05T17:10:09.179Z,99221.03
2019-04-05T17:12:52.047Z,99231.14
2019-04-05T17:15:34.747Z,99231.63
2019-04-05T17:21:38.991Z,99228.88
2019-04-05T17:24:29.365Z,99229.64
2019-04-05T17:27:32.620Z,99230.31
2019-04-05T17:30:23.059Z,99235.10
2019-04-05T17:33:05.855Z,99236.17
2019-04-05T17:35:56.268Z,99233.09
2019-04-05T17:38:39.809Z,99233.82
2019-04-05T17:41:49.205Z,99233.91
2019-04-05T17:44:32.659Z,99233.91
2019-04-05T17:47:23.198Z,99232.03
2019-04-05T17:50:32.964Z,99228.59
2019-04-05T17:53:16.131Z,99230.05
2019-04-05T17:56:06.620Z,99232.44
2019-04-05T17:58:50.051Z,99234.30
2019-04-05T18:01:40.572Z,99237.52
2019-04-05T18:04:31.143Z,99238.02
2019-04-05T18:07:14.500Z,99237.08
2019-04-05T18:10:05.466Z,99239.92
2019-04-05T18:12:48.539Z,99241.03
2019-04-05T18:15:46.705Z,99238.16
2019-04-05T18:18:43.916Z,99245.09
2019-04-05T18:21:34.442Z,99245.04
2019-04-05T18:24:17.901Z,99249.13
2019-04-05T18:27:08.513Z,99255.77
2019-04-05T18:30:01.377Z,99249.98
2019-04-05T18:32:44.404Z,99256.91
2019-04-05T18:35:28.238Z,99245.42
2019-04-05T18:38:18.900Z,99250.28
2019-04-05T18:41:02.602Z,99253.83
2019-04-05T18:43:53.287Z,99252.20
2019-04-05T18:46:36.631Z,99263.31
2019-04-05T18:49:27.337Z,99273.51
2019-04-05T18:52:10.406Z,99265.73
2019-04-05T18:55:01.061Z,99273.36
2019-04-05T18:57:44.884Z,99273.28
2019-04-05T19:00:35.557Z,99274.44
2019-04-05T19:03:18.479Z,99275.50
2019-04-05T19:06:09.286Z,99282.76
2019-04-05T19:08:52.892Z,99282.84
2019-04-05T19:11:43.603Z,99281.91
2019-04-05T19:14:26.867Z,99281.91
2019-04-05T19:17:24.161Z,99285.17
2019-04-05T19:20:22.712Z,99282.05
2019-04-05T19:23:13.431Z,99285.08
2019-04-05T19:25:56.839Z,99282.91
2019-04-05T19:28:47.597Z,99292.80
2019-04-05T19:49:22.699Z,99275.14
2019-04-05T19:52:13.432Z,99271.42
2019-04-05T19:54:57.081Z,99276.66
2019-04-05T19:57:47.821Z,99274.91
2019-04-05T20:00:30.782Z,99269.72
2019-04-05T20:03:21.446Z,99277.44
2019-04-05T20:06:04.879Z,99270.11
2019-04-05T20:08:55.587Z,99273.36
2019-04-05T20:15:21.087Z,99272.33
2019-04-05T20:18:06.711Z,99265.27
2019-04-05T20:24:14.004Z,99273.03
2019-04-05T20:27:00.013Z,99267.02
2019-04-05T20:29:53.169Z,99265.72
2019-04-05T20:36:09.238Z,99257.61
2019-04-05T20:38:54.323Z,99252.44
2019-04-05T20:41:45.127Z,99252.59
2019-04-05T20:44:28.903Z,99240.34
2019-04-05T20:47:19.616Z,99239.48
2019-04-05T20:50:02.845Z,99246.12
2019-04-05T20:52:53.500Z,99246.16
2019-04-05T20:55:37.443Z,99252.50
2019-04-05T20:58:28.011Z,99246.03
2019-04-05T21:01:10.975Z,99251.41
2019-04-05T21:04:01.566Z,99253.48
2019-04-05T21:07:04.941Z,99259.00
2019-04-05T21:09:55.407Z,99257.30
2019-04-05T21:12:38.497Z,99257.53
2019-04-05T21:15:28.895Z,99248.95
2019-04-05T21:18:11.402Z,99248.36
2019-04-05T21:21:05.083Z,99246.09
2019-04-05T21:23:47.814Z,99250.97
2019-04-05T21:26:30.526Z,99250.73
2019-04-05T21:29:20.849Z,99245.41
2019-04-05T21:32:03.448Z,99243.64
2019-04-05T21:35:12.890Z,99232.92
2019-04-05T21:37:56.098Z,99234.90
2019-04-05T21:40:47.390Z,99236.20
2019-04-05T21:43:37.776Z,99227.05
2019-04-05T21:46:21.032Z,99226.42
2019-04-05T21:49:11.435Z,99221.05
2019-04-05T21:51:54.967Z,99220.05
2019-04-05T21:54:47.828Z,99219.34
2019-04-05T21:57:50.251Z,99223.33
2019-04-05T22:00:44.200Z,99219.05
2019-04-05T22:03:27.277Z,99226.13
2019-04-05T22:06:09.953Z,99227.22
2019-04-05T22:09:00.370Z,99221.67
2019-04-05T22:11:43.341Z,99228.91
2019-04-05T22:14:33.741Z,99224.58
2019-04-05T22:17:16.867Z,99220.28
2019-04-05T22:20:07.776Z,99221.38
2019-04-05T22:22:51.290Z,99215.89
2019-04-05T22:25:41.812Z,99223.81
2019-04-05T22:28:25.207Z,99220.95
2019-04-05T22:31:15.644Z,99219.73
2019-04-05T22:33:58.713Z,99219.73
2019-04-05T22:36:49.107Z,99219.52
2019-04-05T22:39:32.137Z,99217.11
2019-04-05T22:42:22.503Z,99224.54
2019-04-05T22:45:05.246Z,99226.66
2019-04-05T22:47:55.592Z,99229.91
2019-04-05T22:50:38.931Z,99226.42
2019-04-05T22:53:29.310Z,99233.94
2019-04-05T22:56:12.637Z,99236.33
2019-04-05T22:58:55.294Z,99226.15
2019-04-05T23:01:45.695Z,99230.31
2019-04-05T23:04:36.036Z,99230.30
2019-04-05T23:07:19.255Z,99236.25
2019-04-05T23:10:09.697Z,99232.77
2019-04-05T23:12:52.940Z,99205.25
2019-04-05T23:15:43.303Z,99222.61
2019-04-05T23:18:26.577Z,99225.44
2019-04-05T23:21:16.971Z,99223.50
2019-04-05T23:23:59.779Z,99223.91
2019-04-05T23:26:50.206Z,99232.46
2019-04-05T23:29:33.081Z,99232.77
2019-04-05T23:32:23.450Z,99227.06
2019-04-05T23:35:07.101Z,99223.50
2019-04-05T23:37:57.448Z,99222.20
2019-04-05T23:40:40.360Z,99223.36
2019-04-05T23:43:30.735Z,99226.84
2019-04-05T23:46:13.439Z,99225.22
2019-04-05T23:49:03.812Z,99222.59
2019-04-05T23:51:47.171Z,99224.98
2019-04-05T23:54:37.529Z,99221.06
2019-04-05T23:57:20.314Z,99219.88
